Time;durP1;ratioP1;P1;durP2;ratioP2;P2;SDS_P1;SDS_P2;PMS_P1;PMS_P2;Temp;Humidity;BMP_temperature;BMP_pressure;BME280_temperature;BME280_humidity;BME280_pressure;Samples;Min_cycle;Max_cycle;Signal;HPM_P1;HPM_P2
2022/01/01 00:02:04;;;;;;;97.10;39.38;;;10.20;99.90;;;;;;5051628;28;20051;-41
2022/01/01 00:04:30;;;;;;;86.22;37.88;;;10.30;99.90;;;;;;5051506;28;20056;-43
2022/01/01 00:06:56;;;;;;;103.28;37.83;;;10.30;99.90;;;;;;5033412;28;20043;-42
2022/01/01 00:09:22;;;;;;;106.63;40.22;;;10.30;99.90;;;;;;5051464;28;20120;-41
2022/01/01 00:11:47;;;;;;;103.68;43.88;;;10.30;99.90;;;;;;5051321;28;20410;-42
2022/01/01 00:14:13;;;;;;;113.75;45.42;;;10.30;99.90;;;;;;5052909;28;20162;-42
2022/01/01 00:16:39;;;;;;;109.25;39.78;;;10.30;99.90;;;;;;5057009;28;20056;-42
2022/01/01 00:19:05;;;;;;;101.00;42.10;;;10.40;99.90;;;;;;5070936;28;20040;-42
2022/01/01 00:21:31;;;;;;;116.75;46.50;;;10.70;99.90;;;;;;5070637;28;20120;-42
2022/01/01 00:23:56;;;;;;;109.53;45.38;;;10.40;99.90;;;;;;5070714;28;20136;-43
2022/01/01 00:26:22;;;;;;;103.78;42.35;;;10.40;99.90;;;;;;5071417;28;20029;-41
2022/01/01 00:28:49;;;;;;;119.18;47.30;;;10.40;99.90;;;;;;5071085;28;20166;-41
2022/01/01 00:31:15;;;;;;;105.00;44.33;;;10.40;99.90;;;;;;5070428;28;20478;-42
2022/01/01 00:33:40;;;;;;;98.90;42.50;;;10.40;99.90;;;;;;5070308;28;20127;-42
2022/01/01 00:36:06;;;;;;;105.53;40.85;;;10.40;99.90;;;;;;5070862;28;20513;-42
2022/01/01 00:38:32;;;;;;;110.50;43.55;;;10.30;99.90;;;;;;5040123;28;20048;-42
2022/01/01 00:40:58;;;;;;;111.38;40.97;;;10.30;99.90;;;;;;5050562;28;20044;-42
2022/01/01 00:43:26;;;;;;;109.82;43.10;;;10.30;99.90;;;;;;5050697;28;20388;-43
2022/01/01 00:45:52;;;;;;;107.85;40.72;;;10.30;99.90;;;;;;5038815;28;20040;-42
2022/01/01 00:48:18;;;;;;;117.53;43.75;;;10.30;99.90;;;;;;5037665;28;20067;-41
2022/01/01 00:50:44;;;;;;;115.68;43.92;;;10.30;99.90;;;;;;5050029;28;20094;-43
2022/01/01 00:53:09;;;;;;;126.45;46.67;;;10.20;99.90;;;;;;5050937;28;20049;-42
2022/01/01 00:55:35;;;;;;;112.85;44.95;;;10.50;99.90;;;;;;5050779;28;20048;-42
2022/01/01 00:58:01;;;;;;;125.05;48.22;;;10.40;99.90;;;;;;5050106;28;20041;-42
2022/01/01 01:00:27;;;;;;;128.23;52.85;;;10.20;99.90;;;;;;5050501;28;20086;-42
2022/01/01 01:02:52;;;;;;;118.22;47.78;;;10.20;99.90;;;;;;5050138;28;20116;-42
2022/01/01 01:05:18;;;;;;;125.45;48.53;;;9.70;99.90;;;;;;5050285;28;20551;-41
2022/01/01 01:07:44;;;;;;;120.72;48.22;;;10.10;99.90;;;;;;5050267;28;20484;-42
2022/01/01 01:10:12;;;;;;;134.20;49.72;;;10.20;99.90;;;;;;5049871;28;20052;-42
2022/01/01 01:12:43;;;;;;;131.70;53.03;;;10.00;99.90;;;;;;5050117;28;20041;-42
2022/01/01 01:15:16;;;;;;;138.25;51.60;;;10.00;99.90;;;;;;5049952;28;20048;-42
2022/01/01 01:17:52;;;;;;;135.23;48.65;;;10.00;99.90;;;;;;5050092;28;20533;-41
2022/01/01 01:20:20;;;;;;;136.73;47.15;;;10.00;99.90;;;;;;5049903;28;20076;-42
2022/01/01 01:22:46;;;;;;;115.07;46.28;;;10.00;99.90;;;;;;5049779;28;20045;-42
2022/01/01 01:25:12;;;;;;;129.05;47.47;;;10.10;99.90;;;;;;5064047;28;20423;-43
2022/01/01 01:27:39;;;;;;;119.90;45.55;;;9.80;99.90;;;;;;5069773;28;20087;-42
2022/01/01 01:30:08;;;;;;;117.53;45.42;;;10.00;99.90;;;;;;5069177;28;20115;-42
2022/01/01 01:32:35;;;;;;;119.93;45.63;;;10.20;99.90;;;;;;5069753;28;20391;-42
2022/01/01 01:35:00;;;;;;;110.88;39.72;;;10.20;99.90;;;;;;5069454;28;20049;-42
2022/01/01 01:37:28;;;;;;;113.82;41.65;;;10.20;99.90;;;;;;5066485;28;20106;-42
2022/01/01 01:39:55;;;;;;;122.40;41.58;;;10.20;99.90;;;;;;5049813;28;20051;-41
2022/01/01 01:42:20;;;;;;;103.47;36.10;;;10.20;99.90;;;;;;5050078;28;20095;-42
2022/01/01 01:44:48;;;;;;;100.28;38.05;;;10.60;99.90;;;;;;5048777;28;20044;-42
2022/01/01 01:47:17;;;;;;;105.15;36.25;;;10.20;99.90;;;;;;5031366;28;20041;-42
2022/01/01 01:49:45;;;;;;;100.90;37.05;;;10.20;99.90;;;;;;5049421;28;20512;-41
2022/01/01 01:52:12;;;;;;;105.78;35.85;;;10.20;99.90;;;;;;5049368;28;20037;-42
2022/01/01 01:54:38;;;;;;;105.18;33.70;;;10.10;99.90;;;;;;5049404;28;20398;-43
2022/01/01 01:57:04;;;;;;;92.85;33.25;;;10.60;99.90;;;;;;5049789;28;20119;-43
2022/01/01 01:59:30;;;;;;;102.85;39.78;;;10.10;99.90;;;;;;5050855;28;20120;-42
2022/01/01 02:01:56;;;;;;;105.35;37.22;;;10.20;99.90;;;;;;5050696;28;20112;-44
2022/01/01 02:04:22;;;;;;;94.03;37.95;;;10.20;99.90;;;;;;5050702;28;20135;-42
2022/01/01 02:06:48;;;;;;;114.47;41.22;;;10.20;99.90;;;;;;5032086;28;20056;-41
2022/01/01 02:09:15;;;;;;;115.22;42.67;;;10.20;99.90;;;;;;5050086;28;20044;-42
2022/01/01 02:11:41;;;;;;;111.80;42.13;;;10.20;99.90;;;;;;5055246;28;20049;-42
2022/01/01 02:14:21;;;;;;;119.13;47.15;;;10.30;99.90;;;;;;5050105;28;20073;-43
2022/01/01 02:17:08;;;;;;;133.07;52.92;;;10.30;99.90;;;;;;5050703;28;20115;-41
2022/01/01 02:19:51;;;;;;;143.40;55.95;;;10.20;99.90;;;;;;5050420;28;20045;-42
2022/01/01 02:22:18;;;;;;;141.90;60.67;;;10.20;99.90;;;;;;5049902;28;20024;-42
2022/01/01 02:24:43;;;;;;;155.95;62.88;;;10.40;99.90;;;;;;5050223;28;20036;-42
2022/01/01 02:27:09;;;;;;;157.32;66.28;;;10.40;99.90;;;;;;5049974;28;20095;-42
2022/01/01 02:29:36;;;;;;;153.52;66.68;;;10.20;99.90;;;;;;5049947;28;20043;-42
2022/01/01 02:32:02;;;;;;;164.70;69.40;;;10.20;99.90;;;;;;5067053;28;20056;-42
2022/01/01 02:34:28;;;;;;;173.77;71.00;;;10.20;99.90;;;;;;5069822;28;20059;-43
2022/01/01 02:36:53;;;;;;;172.05;72.03;;;10.20;99.90;;;;;;5069726;28;20048;-43
2022/01/01 02:39:21;;;;;;;164.50;72.07;;;11.40;99.90;;;;;;5069661;28;20051;-42
2022/01/01 02:41:50;;;;;;;163.57;71.40;;;10.20;99.90;;;;;;5069755;28;20037;-41
2022/01/01 02:44:17;;;;;;;159.63;68.88;;;11.10;99.90;;;;;;5069617;28;20044;-42
2022/01/01 02:46:43;;;;;;;176.07;71.10;;;10.20;99.90;;;;;;5069435;28;20383;-42
2022/01/01 02:49:09;;;;;;;166.13;72.78;;;10.10;99.90;;;;;;5069458;28;20044;-42
2022/01/01 02:51:35;;;;;;;167.27;74.45;;;11.00;99.90;;;;;;5051376;28;20518;-42
2022/01/01 02:54:00;;;;;;;173.63;70.63;;;10.20;99.90;;;;;;5069805;28;20056;-43
2022/01/01 02:56:26;;;;;;;166.60;74.53;;;10.20;99.90;;;;;;5069283;28;20076;-42
2022/01/01 02:58:52;;;;;;;157.57;70.03;;;10.20;99.90;;;;;;5069652;28;20052;-42
2022/01/01 03:01:19;;;;;;;175.52;76.03;;;9.20;99.90;;;;;;5069458;28;20040;-41
2022/01/01 03:03:46;;;;;;;169.07;74.15;;;10.10;99.90;;;;;;5069604;28;20049;-42
2022/01/01 03:06:19;;;;;;;171.35;73.95;;;10.20;99.90;;;;;;5051342;28;20044;-42
2022/01/01 03:08:45;;;;;;;;;;;10.20;99.90;;;;;;5070147;28;20057;-42
2022/01/01 03:11:11;;;;;;;156.75;70.63;;;10.20;99.90;;;;;;5069601;28;19927;-42
2022/01/01 03:13:37;;;;;;;155.80;73.35;;;10.10;99.90;;;;;;5069757;28;20037;-44
2022/01/01 03:16:03;;;;;;;176.82;74.80;;;10.20;99.90;;;;;;5069793;28;20386;-42
2022/01/01 03:18:28;;;;;;;165.38;72.78;;;10.20;99.90;;;;;;5069720;28;20071;-43
2022/01/01 03:20:54;;;;;;;162.75;71.40;;;10.20;99.90;;;;;;5069653;28;20094;-43
2022/01/01 03:23:19;;;;;;;169.35;71.72;;;11.20;99.90;;;;;;5069867;28;20044;-42
2022/01/01 03:25:45;;;;;;;173.25;72.90;;;10.40;99.90;;;;;;5069623;28;20055;-43
2022/01/01 03:28:11;;;;;;;173.25;74.10;;;10.10;99.90;;;;;;5069411;28;20479;-43
2022/01/01 03:30:37;;;;;;;166.73;73.97;;;10.10;99.90;;;;;;5069205;28;20056;-42
2022/01/01 03:33:03;;;;;;;163.73;69.78;;;10.20;99.90;;;;;;5069187;28;20056;-43
2022/01/01 03:35:28;;;;;;;173.75;75.90;;;11.10;99.90;;;;;;5069031;28;20041;-42
2022/01/01 03:37:54;;;;;;;166.90;70.22;;;10.20;99.90;;;;;;5066750;28;20052;-42
2022/01/01 03:40:20;;;;;;;170.07;74.63;;;10.20;99.90;;;;;;5069217;28;20048;-42
2022/01/01 03:42:45;;;;;;;172.57;74.30;;;10.20;99.90;;;;;;5069412;28;20040;-42
2022/01/01 03:45:11;;;;;;;177.82;75.00;;;10.20;99.90;;;;;;5069105;28;20052;-42
2022/01/01 03:47:37;;;;;;;172.00;76.15;;;10.20;99.90;;;;;;5069410;28;20036;-43
2022/01/01 03:50:03;;;;;;;164.98;75.20;;;10.20;99.90;;;;;;5069140;28;20051;-42
2022/01/01 03:52:29;;;;;;;166.48;73.85;;;10.20;99.90;;;;;;5069200;28;20123;-43
2022/01/01 03:54:54;;;;;;;164.95;74.65;;;10.20;99.90;;;;;;5069040;28;20128;-42
2022/01/01 03:57:21;;;;;;;174.25;76.00;;;10.30;99.90;;;;;;5068960;28;20037;-42
2022/01/01 03:59:47;;;;;;;153.23;74.22;;;10.20;99.90;;;;;;5069323;28;20367;-42
2022/01/01 04:02:14;;;;;;;167.55;74.88;;;10.50;99.90;;;;;;5069117;28;20421;-42
2022/01/01 04:04:40;;;;;;;171.13;77.93;;;10.30;99.90;;;;;;5069020;28;20376;-42
2022/01/01 04:07:07;;;;;;;156.65;72.53;;;10.20;99.90;;;;;;5070511;28;20076;-44
2022/01/01 04:09:33;;;;;;;160.27;75.65;;;10.50;99.90;;;;;;5072462;28;20083;-42
2022/01/01 04:11:59;;;;;;;169.23;77.63;;;10.60;99.90;;;;;;5072508;28;20451;-42
2022/01/01 04:14:24;;;;;;;157.63;77.05;;;10.30;99.90;;;;;;5072306;28;20499;-42
2022/01/01 04:16:52;;;;;;;166.02;81.10;;;10.30;99.90;;;;;;5072439;28;20094;-43
2022/01/01 04:19:17;;;;;;;171.52;82.13;;;10.30;99.90;;;;;;5072153;28;20072;-43
2022/01/01 04:21:43;;;;;;;179.35;82.45;;;11.00;99.90;;;;;;5072473;28;20080;-42
2022/01/01 04:24:09;;;;;;;181.73;84.68;;;11.10;99.90;;;;;;5072365;28;20044;-42
2022/01/01 04:26:34;;;;;;;183.63;83.25;;;10.30;99.90;;;;;;5071951;28;20044;-43
2022/01/01 04:29:00;;;;;;;173.77;82.25;;;11.20;99.90;;;;;;5072318;28;20127;-42
2022/01/01 04:31:26;;;;;;;200.10;90.78;;;10.00;99.90;;;;;;5084744;28;20498;-44
2022/01/01 04:33:52;;;;;;;200.50;92.43;;;11.00;99.90;;;;;;5092409;28;20059;-44
2022/01/01 04:36:17;;;;;;;191.20;95.43;;;11.10;99.90;;;;;;5092483;28;20044;-42
2022/01/01 04:38:44;;;;;;;194.15;94.88;;;10.30;99.90;;;;;;5054454;28;20059;-42
2022/01/01 04:41:13;;;;;;;202.88;102.78;;;10.50;99.90;;;;;;5092118;28;20051;-43
2022/01/01 04:43:40;;;;;;;210.93;102.25;;;10.20;99.90;;;;;;5092255;28;20088;-43
2022/01/01 04:46:07;;;;;;;199.77;100.95;;;10.30;99.90;;;;;;5092069;28;20478;-42
2022/01/01 04:48:37;;;;;;;210.90;102.40;;;10.20;99.90;;;;;;5092024;28;20040;-45
2022/01/01 04:51:07;;;;;;;202.60;102.65;;;10.30;99.90;;;;;;5092456;28;20071;-42
2022/01/01 04:53:34;;;;;;;214.75;105.53;;;10.60;99.90;;;;;;5092169;28;20056;-41
2022/01/01 04:56:04;;;;;;;207.60;102.05;;;10.30;99.90;;;;;;5092036;28;20036;-42
2022/01/01 04:58:30;;;;;;;208.98;99.63;;;10.30;99.90;;;;;;5091343;28;20085;-44
2022/01/01 05:00:56;;;;;;;192.23;98.15;;;11.20;99.90;;;;;;5092296;28;20432;-42
2022/01/01 05:03:21;;;;;;;201.68;98.88;;;10.30;99.90;;;;;;5092027;28;20487;-41
2022/01/01 05:05:47;;;;;;;201.43;96.55;;;10.30;99.90;;;;;;5091754;28;20043;-43
2022/01/01 05:08:13;;;;;;;192.25;90.35;;;10.30;99.90;;;;;;5091673;28;20052;-42
2022/01/01 05:10:38;;;;;;;206.93;96.85;;;10.30;99.90;;;;;;5091387;28;20160;-43
2022/01/01 05:13:04;;;;;;;193.13;92.50;;;10.30;99.90;;;;;;5091348;28;20051;-42
2022/01/01 05:15:30;;;;;;;189.25;91.85;;;10.20;99.90;;;;;;5091314;28;20032;-42
2022/01/01 05:17:56;;;;;;;187.75;90.15;;;10.40;99.90;;;;;;5090786;28;20043;-43
2022/01/01 05:20:22;;;;;;;198.20;92.60;;;10.30;99.90;;;;;;5091229;28;20089;-42
2022/01/01 05:22:47;;;;;;;191.45;92.05;;;10.30;99.90;;;;;;5091323;28;20083;-42
2022/01/01 05:25:13;;;;;;;191.15;93.22;;;10.30;99.90;;;;;;5091245;28;20052;-43
2022/01/01 05:27:40;;;;;;;182.85;87.68;;;10.20;99.90;;;;;;5072892;28;20043;-42
2022/01/01 05:30:07;;;;;;;192.00;91.10;;;10.70;99.90;;;;;;5091082;28;20044;-44
2022/01/01 05:32:33;;;;;;;197.68;92.63;;;10.30;99.90;;;;;;5091243;28;20173;-42
2022/01/01 05:34:59;;;;;;;210.38;97.15;;;10.30;99.90;;;;;;5091354;28;20127;-42
2022/01/01 05:37:25;;;;;;;193.40;93.10;;;10.30;99.90;;;;;;5088558;28;20138;-42
2022/01/01 05:39:50;;;;;;;190.27;93.32;;;10.80;99.90;;;;;;5090885;28;20118;-43
2022/01/01 05:42:16;;;;;;;190.75;91.35;;;10.40;99.90;;;;;;5091168;28;20085;-43
2022/01/01 05:44:42;;;;;;;189.65;89.25;;;10.40;99.90;;;;;;5090899;28;20051;-42
2022/01/01 05:47:07;;;;;;;181.75;88.70;;;10.50;99.90;;;;;;5090807;28;20047;-42
2022/01/01 05:49:33;;;;;;;199.85;87.25;;;10.70;99.90;;;;;;5091211;28;20073;-42
2022/01/01 05:51:59;;;;;;;178.70;84.95;;;10.30;99.90;;;;;;5090741;28;20044;-42
2022/01/01 05:54:24;;;;;;;200.25;86.25;;;10.40;99.90;;;;;;5090890;28;20051;-43
2022/01/01 05:56:50;;;;;;;173.80;79.28;;;10.40;99.90;;;;;;5090555;28;20837;-43
2022/01/01 05:59:16;;;;;;;155.73;69.90;;;10.50;99.90;;;;;;5090683;28;20051;-42
2022/01/01 06:01:41;;;;;;;167.63;76.65;;;10.40;99.90;;;;;;5055805;28;20040;-44
2022/01/01 06:04:07;;;;;;;171.65;75.75;;;10.50;99.90;;;;;;5090898;28;20440;-42
2022/01/01 06:06:33;;;;;;;174.30;77.72;;;11.40;99.90;;;;;;5090812;28;20048;-42
2022/01/01 06:08:59;;;;;;;164.35;72.18;;;10.50;99.90;;;;;;5090450;28;20036;-42
2022/01/01 06:11:24;;;;;;;174.60;73.53;;;11.10;99.90;;;;;;5090841;28;20047;-42
2022/01/01 06:13:50;;;;;;;169.27;72.13;;;10.40;99.90;;;;;;5090449;28;20121;-42
2022/01/01 06:16:16;;;;;;;168.23;70.80;;;10.50;99.90;;;;;;5090814;28;20036;-43
2022/01/01 06:18:42;;;;;;;163.70;69.32;;;10.40;99.90;;;;;;5090336;28;20432;-42
2022/01/01 06:21:07;;;;;;;158.10;61.92;;;10.40;99.90;;;;;;5090471;28;20075;-42
2022/01/01 06:23:37;;;;;;;162.70;65.07;;;10.40;99.90;;;;;;5090203;28;20044;-43
2022/01/01 06:26:03;;;;;;;165.68;63.75;;;10.40;99.90;;;;;;5090400;28;20052;-43
2022/01/01 06:28:29;;;;;;;153.73;60.22;;;10.40;99.90;;;;;;5090258;28;20473;-42
2022/01/01 06:30:55;;;;;;;156.05;59.22;;;10.40;99.90;;;;;;5089388;28;20059;-43
2022/01/01 06:33:21;;;;;;;147.18;58.03;;;10.40;99.90;;;;;;5090266;28;20047;-41
2022/01/01 06:35:48;;;;;;;146.25;58.00;;;10.30;99.90;;;;;;5090139;28;20074;-42
2022/01/01 06:38:14;;;;;;;165.75;59.60;;;10.60;99.90;;;;;;5086857;28;20575;-42
2022/01/01 06:40:42;;;;;;;159.45;60.05;;;10.50;99.90;;;;;;5090007;28;20044;-44
2022/01/01 06:43:13;;;;;;;154.43;57.42;;;10.50;99.90;;;;;;5090150;28;20528;-42
2022/01/01 06:45:39;;;;;;;160.18;56.00;;;10.80;99.90;;;;;;5090116;28;20055;-43
2022/01/01 06:48:05;;;;;;;164.25;57.78;;;10.50;99.90;;;;;;5089651;28;20044;-42
2022/01/01 06:50:32;;;;;;;152.45;55.45;;;10.40;99.90;;;;;;5090220;28;20123;-44
2022/01/01 06:52:58;;;;;;;162.13;55.53;;;10.40;99.90;;;;;;5089556;28;20048;-42
2022/01/01 06:55:24;;;;;;;161.07;55.65;;;10.50;99.90;;;;;;5090285;28;20044;-45
2022/01/01 06:57:49;;;;;;;172.85;56.58;;;10.60;99.90;;;;;;5089541;28;20506;-44
2022/01/01 07:00:16;;;;;;;162.93;55.22;;;10.60;99.90;;;;;;5089980;28;20040;-42
2022/01/01 07:02:44;;;;;;;141.13;52.85;;;10.50;99.90;;;;;;5089858;28;20051;-42
2022/01/01 07:05:10;;;;;;;164.55;55.97;;;10.50;99.90;;;;;;5090057;28;20043;-42
2022/01/01 07:07:37;;;;;;;153.68;54.78;;;10.50;99.90;;;;;;5089873;28;20982;-44
2022/01/01 07:10:04;;;;;;;142.65;52.08;;;10.80;99.90;;;;;;5089774;28;20119;-42
2022/01/01 07:12:30;;;;;;;141.30;47.78;;;10.50;99.90;;;;;;5089972;28;20059;-43
2022/01/01 07:14:55;;;;;;;141.80;49.83;;;10.50;99.90;;;;;;5089773;28;20047;-42
2022/01/01 07:17:21;;;;;;;134.48;47.83;;;10.90;99.90;;;;;;5090068;28;20040;-42
2022/01/01 07:19:47;;;;;;;134.82;45.25;;;10.60;99.90;;;;;;5089708;28;20071;-42
2022/01/01 07:22:12;;;;;;;142.93;48.67;;;10.60;99.90;;;;;;5089565;28;20066;-42
2022/01/01 07:24:39;;;;;;;144.80;47.55;;;10.60;99.90;;;;;;5089642;28;20036;-43
2022/01/01 07:27:05;;;;;;;145.98;45.45;;;10.60;99.90;;;;;;5089352;28;20533;-42
2022/01/01 07:29:31;;;;;;;131.30;44.50;;;10.60;99.90;;;;;;5089731;28;20138;-43
2022/01/01 07:31:57;;;;;;;131.63;44.95;;;11.50;99.90;;;;;;5089257;28;20060;-44
2022/01/01 07:34:23;;;;;;;137.93;45.10;;;10.50;99.90;;;;;;5089546;28;20085;-41
2022/01/01 07:36:49;;;;;;;136.73;46.13;;;10.70;99.90;;;;;;5089408;28;20064;-42
2022/01/01 07:39:15;;;;;;;148.60;47.22;;;12.00;99.90;;;;;;5086205;28;20101;-42
2022/01/01 07:41:41;;;;;;;142.13;48.63;;;10.70;99.90;;;;;;5089967;28;20039;-43
2022/01/01 07:44:07;;;;;;;145.73;49.13;;;10.70;99.90;;;;;;5093243;28;20039;-43
2022/01/01 07:46:33;;;;;;;139.15;47.17;;;10.70;99.90;;;;;;5093671;28;20044;-42
2022/01/01 07:48:58;;;;;;;144.40;48.50;;;11.00;99.90;;;;;;5093056;28;20035;-43
2022/01/01 07:51:24;;;;;;;127.97;44.88;;;10.80;99.90;;;;;;5093330;28;20048;-43
2022/01/01 07:53:50;;;;;;;128.30;43.58;;;10.80;99.90;;;;;;5093390;28;20414;-42
2022/01/01 07:56:16;;;;;;;128.82;44.25;;;10.90;99.90;;;;;;5092923;28;20455;-43
2022/01/01 07:58:41;;;;;;;133.98;46.17;;;10.80;99.90;;;;;;5093083;28;20566;-42
2022/01/01 08:01:07;;;;;;;134.98;45.55;;;11.60;99.90;;;;;;5093033;28;20201;-43
2022/01/01 08:03:33;;;;;;;122.03;43.67;;;10.80;99.90;;;;;;5092903;28;20448;-43
2022/01/01 08:05:59;;;;;;;120.47;42.72;;;10.80;99.90;;;;;;5092996;28;20078;-41
2022/01/01 08:08:24;;;;;;;110.20;43.25;;;10.80;99.90;;;;;;5093226;28;20115;-43
2022/01/01 08:10:50;;;;;;;102.85;40.83;;;10.90;99.90;;;;;;5092993;28;20040;-42
2022/01/01 08:13:24;;;;;;;110.40;42.15;;;11.60;99.90;;;;;;5092465;28;20039;-43
2022/01/01 08:15:52;;;;;;;104.28;42.20;;;10.90;99.90;;;;;;5092874;28;20048;-44
2022/01/01 08:18:18;;;;;;;115.40;41.47;;;11.00;99.90;;;;;;5092578;28;20555;-43
2022/01/01 08:20:45;;;;;;;113.40;42.67;;;11.00;99.90;;;;;;5074702;28;20055;-44
2022/01/01 08:23:11;;;;;;;97.80;40.65;;;11.00;99.90;;;;;;5092543;28;20063;-43
2022/01/01 08:25:37;;;;;;;110.65;43.13;;;11.20;99.90;;;;;;5092897;28;20044;-44
2022/01/01 08:28:02;;;;;;;109.07;40.80;;;11.00;99.90;;;;;;5092479;28;20036;-47
2022/01/01 08:30:28;;;;;;;105.40;43.20;;;11.10;99.90;;;;;;5092107;28;20504;-43
2022/01/01 08:33:01;;;;;;;109.47;44.55;;;11.10;99.90;;;;;;5092554;28;20040;-44
2022/01/01 08:35:27;;;;;;;96.28;41.72;;;11.10;99.90;;;;;;5092426;28;20044;-45
2022/01/01 08:37:53;;;;;;;92.40;39.47;;;11.50;99.90;;;;;;5089537;28;20064;-42
2022/01/01 08:40:19;;;;;;;95.97;39.80;;;11.10;99.90;;;;;;5092353;28;20425;-43
2022/01/01 08:42:44;;;;;;;107.35;43.35;;;11.10;99.90;;;;;;5092206;28;20048;-44
2022/01/01 08:45:10;;;;;;;109.38;44.13;;;11.10;99.90;;;;;;5091983;28;20150;-45
2022/01/01 08:47:36;;;;;;;111.30;44.40;;;11.10;99.90;;;;;;5092309;28;20204;-43
2022/01/01 08:50:01;;;;;;;127.00;46.47;;;11.60;99.90;;;;;;5091705;28;20164;-43
2022/01/01 08:52:28;;;;;;;134.57;48.20;;;11.20;99.90;;;;;;5092017;28;20047;-41
2022/01/01 08:54:59;;;;;;;152.13;47.45;;;11.20;99.90;;;;;;5091875;28;20044;-43
2022/01/01 08:57:25;;;;;;;141.98;49.13;;;11.10;99.90;;;;;;5091988;28;20485;-44
2022/01/01 08:59:51;;;;;;;130.43;46.67;;;10.80;99.90;;;;;;5092131;28;20505;-43
2022/01/01 09:02:18;;;;;;;123.38;47.92;;;11.10;99.90;;;;;;5092036;28;20036;-42
2022/01/01 09:04:43;;;;;;;140.55;49.63;;;11.20;99.90;;;;;;5091904;28;20048;-43
2022/01/01 09:07:09;;;;;;;129.90;48.97;;;11.10;99.90;;;;;;5091478;28;20050;-44
2022/01/01 09:09:35;;;;;;;167.18;54.08;;;11.20;99.90;;;;;;5073782;28;20047;-42
2022/01/01 09:12:01;;;;;;;135.23;53.92;;;11.20;99.90;;;;;;5091639;28;20039;-42
2022/01/01 09:14:27;;;;;;;139.30;52.25;;;11.20;99.90;;;;;;5072172;28;20123;-41
2022/01/01 09:16:53;;;;;;;149.32;52.83;;;11.10;99.90;;;;;;5070797;28;20037;-42
2022/01/01 09:19:19;;;;;;;139.70;57.22;;;11.20;99.90;;;;;;5070523;28;20062;-42
2022/01/01 09:21:45;;;;;;;151.68;57.42;;;11.20;99.90;;;;;;5070530;28;20105;-42
2022/01/01 09:24:11;;;;;;;150.23;55.15;;;11.20;99.90;;;;;;5070707;28;20441;-44
2022/01/01 09:26:37;;;;;;;129.30;53.10;;;11.30;99.90;;;;;;5071078;28;20091;-43
2022/01/01 09:29:04;;;;;;;135.25;55.38;;;11.30;99.90;;;;;;5071216;28;20048;-41
2022/01/01 09:31:31;;;;;;;123.80;53.25;;;11.30;99.90;;;;;;5069868;28;20147;-41
2022/01/01 09:33:57;;;;;;;116.85;52.50;;;11.40;99.90;;;;;;5070827;28;20044;-43
2022/01/01 09:36:22;;;;;;;119.32;52.70;;;11.80;99.90;;;;;;5070393;28;20094;-41
2022/01/01 09:38:48;;;;;;;110.28;48.67;;;11.40;99.90;;;;;;5070396;28;20090;-41
2022/01/01 09:41:15;;;;;;;103.00;48.92;;;11.40;99.90;;;;;;5070345;28;20545;-42
2022/01/01 09:43:41;;;;;;;105.75;52.78;;;11.40;99.90;;;;;;5067787;28;20040;-42
2022/01/01 09:46:12;;;;;;;104.85;49.35;;;11.40;99.90;;;;;;5070112;28;20032;-42
2022/01/01 09:48:38;;;;;;;102.60;45.33;;;11.50;99.90;;;;;;5070416;28;20120;-42
2022/01/01 09:51:04;;;;;;;88.57;46.28;;;11.50;99.90;;;;;;5070422;28;20519;-42
2022/01/01 09:53:32;;;;;;;87.28;45.97;;;11.60;99.90;;;;;;5070291;28;20052;-43
2022/01/01 09:56:00;;;;;;;94.20;46.08;;;11.50;99.90;;;;;;5070576;28;20068;-41
2022/01/01 09:58:29;;;;;;;84.50;42.75;;;11.60;99.90;;;;;;5070295;28;20055;-42
2022/01/01 10:00:55;;;;;;;88.18;43.10;;;11.60;99.90;;;;;;5070518;28;20040;-41
2022/01/01 10:03:33;;;;;;;79.43;42.17;;;11.60;99.90;;;;;;5070303;28;20032;-42
2022/01/01 10:06:02;;;;;;;84.28;42.78;;;11.60;99.90;;;;;;5069644;28;20818;-43
2022/01/01 10:08:29;;;;;;;83.70;38.85;;;11.70;99.90;;;;;;5070126;28;20047;-41
2022/01/01 10:10:55;;;;;;;83.70;41.22;;;12.10;99.90;;;;;;5070070;28;20044;-41
2022/01/01 10:13:33;;;;;;;70.28;36.40;;;11.70;99.90;;;;;;5070082;28;20043;-42
2022/01/01 10:16:01;;;;;;;77.78;38.53;;;11.70;99.90;;;;;;5070173;28;20393;-42
2022/01/01 10:18:32;;;;;;;70.15;36.72;;;11.70;99.90;;;;;;5070009;28;20047;-41
2022/01/01 10:21:00;;;;;;;70.95;36.78;;;11.70;99.90;;;;;;5070201;28;20437;-41
2022/01/01 10:23:29;;;;;;;76.50;38.03;;;11.70;99.90;;;;;;5068857;28;20101;-41
2022/01/01 10:29:04;;;;;;;63.75;35.40;;;11.70;99.90;;;;;;5070165;28;20063;-42
2022/01/01 10:31:31;;;;;;;66.05;32.45;;;11.70;99.90;;;;;;5069661;28;20481;-42
2022/01/01 10:33:58;;;;;;;58.03;32.30;;;11.80;99.90;;;;;;5069440;28;20053;-41
2022/01/01 10:36:24;;;;;;;62.28;30.70;;;12.20;99.90;;;;;;5069168;28;20040;-43
2022/01/01 10:38:50;;;;;;;57.40;30.45;;;11.80;99.90;;;;;;5069578;28;20044;-41
2022/01/01 10:41:18;;;;;;;56.23;28.33;;;11.70;99.90;;;;;;4452400;28;10002657;-44
2022/01/01 10:43:45;;;;;;;54.65;29.63;;;11.80;99.90;;;;;;5068142;28;20456;-42
2022/01/01 10:46:14;;;;;;;50.95;27.02;;;11.80;99.90;;;;;;5068133;28;20556;-41
2022/01/01 10:48:56;;;;;;;58.80;25.67;;;11.70;99.90;;;;;;5067317;28;20083;-41
2022/01/01 10:51:21;;;;;;;;;;;11.80;99.90;;;;;;5068022;28;20040;-41
2022/01/01 10:54:00;;;;;;;43.17;23.80;;;12.20;99.90;;;;;;5068132;28;19943;-42
2022/01/01 10:56:34;;;;;;;47.30;23.58;;;11.80;99.90;;;;;;5068250;28;20052;-42
2022/01/01 10:59:00;;;;;;;41.30;22.65;;;11.80;99.90;;;;;;5068425;28;20094;-43
2022/01/01 11:01:26;;;;;;;49.55;23.88;;;11.70;99.90;;;;;;5067987;28;20419;-42
2022/01/01 11:03:54;;;;;;;40.50;21.98;;;11.80;99.90;;;;;;5067999;28;20476;-42
2022/01/01 11:06:33;;;;;;;40.85;22.25;;;11.80;99.90;;;;;;5061586;28;20375;-44
2022/01/01 11:09:00;;;;;;;37.55;19.67;;;11.90;99.90;;;;;;5040454;28;20032;-46
2022/01/01 11:11:26;;;;;;;40.92;20.05;;;11.90;99.90;;;;;;5061173;28;20064;-46
2022/01/01 11:13:53;;;;;;;40.47;19.60;;;12.00;99.90;;;;;;5064880;28;20063;-46
2022/01/01 11:16:19;;;;;;;33.25;18.00;;;12.00;99.90;;;;;;5046774;28;20078;-51
2022/01/01 11:18:45;;;;;;;34.15;16.95;;;12.10;99.90;;;;;;5069400;28;20024;-48
2022/01/01 11:21:11;;;;;;;36.75;17.80;;;12.20;99.90;;;;;;5069991;28;20043;-49
2022/01/01 11:23:41;;;;;;;33.95;16.38;;;12.10;99.90;;;;;;5068380;28;20099;-48
2022/01/01 11:26:08;;;;;;;32.70;16.70;;;12.20;99.90;;;;;;5069129;28;20040;-45
2022/01/01 11:28:34;;;;;;;35.13;17.33;;;12.20;99.90;;;;;;5068735;28;20031;-44
2022/01/01 11:31:15;;;;;;;32.05;16.77;;;12.20;99.90;;;;;;5069183;28;20037;-57
2022/01/01 11:33:43;;;;;;;28.67;14.35;;;12.20;99.90;;;;;;5048671;28;20060;-49
2022/01/01 11:36:19;;;;;;;30.67;14.80;;;12.20;99.90;;;;;;5049457;28;20077;-54
2022/01/01 11:38:44;;;;;;;29.45;14.05;;;12.20;99.90;;;;;;5049177;28;20143;-57
2022/01/01 11:41:13;;;;;;;28.65;13.60;;;12.10;99.90;;;;;;5051450;28;20131;-59
2022/01/01 11:43:53;;;;;;;24.83;12.57;;;12.10;99.90;;;;;;5050065;28;20112;-57
2022/01/01 11:46:33;;;;;;;34.03;14.93;;;12.10;99.90;;;;;;5050827;28;20051;-56
2022/01/01 11:49:33;;;;;;;27.88;12.98;;;12.10;99.90;;;;;;5049123;28;20091;-51
2022/01/01 11:52:11;;;;;;;28.58;13.32;;;12.00;99.90;;;;;;5049818;28;20041;-45
2022/01/01 11:54:42;;;;;;;28.92;12.63;;;12.00;99.90;;;;;;5047365;28;20072;-45
2022/01/01 11:57:29;;;;;;;22.60;11.98;;;11.90;99.90;;;;;;5029558;28;20368;-49
2022/01/01 12:00:12;;;;;;;32.20;13.80;;;12.10;99.90;;;;;;5045993;28;20112;-48
2022/01/01 12:02:44;;;;;;;26.88;12.60;;;11.90;99.90;;;;;;5046895;28;20105;-50
2022/01/01 12:05:15;;;;;;;26.02;12.13;;;11.90;99.90;;;;;;5046074;28;20037;-48
2022/01/01 12:08:36;;;;;;;26.58;11.57;;;11.80;99.90;;;;;;5027951;28;20056;-46
2022/01/01 12:11:02;;;;;;;27.63;11.23;;;11.80;99.90;;;;;;4965613;28;20133;-48
2022/01/01 12:13:35;;;;;;;29.08;11.93;;;11.80;99.90;;;;;;4953014;28;20045;-47
2022/01/01 12:16:20;;;;;;;23.17;11.77;;;11.80;99.90;;;;;;5035570;28;20049;-56
2022/01/01 12:18:46;;;;;;;20.13;10.65;;;11.80;99.90;;;;;;5025225;28;20049;-47
2022/01/01 12:21:19;;;;;;;25.92;11.40;;;11.80;99.90;;;;;;5045802;28;20118;-49
2022/01/01 12:23:48;;;;;;;29.42;11.23;;;11.80;99.90;;;;;;5024518;28;20068;-47
2022/01/01 12:26:15;;;;;;;23.02;10.13;;;11.80;99.90;;;;;;5027418;28;20065;-47